createdAt,value
2022-07-30T00:01:18.329Z,59.64
2022-07-30T00:03:46.398Z,59.88
2022-07-30T00:06:15.619Z,59.72
2022-07-30T00:08:43.543Z,59.63
2022-07-30T00:11:12.035Z,59.74
2022-07-30T00:13:39.896Z,60.12
2022-07-30T00:16:08.096Z,59.88
2022-07-30T00:18:36.004Z,60.19
2022-07-30T00:21:05.027Z,59.53
2022-07-30T00:23:34.953Z,59.93
2022-07-30T00:26:03.221Z,59.18
2022-07-30T00:28:31.139Z,59.66
2022-07-30T00:30:59.001Z,59.81
2022-07-30T00:33:28.062Z,59.98
2022-07-30T00:35:56.694Z,60.41
2022-07-30T00:38:24.707Z,60.39
2022-07-30T00:40:54.263Z,60.62
2022-07-30T00:43:22.337Z,60.74
2022-07-30T00:45:50.209Z,60.55
2022-07-30T00:48:24.261Z,60.24
2022-07-30T00:50:52.253Z,60.08
2022-07-30T00:53:20.204Z,60.13
2022-07-30T00:55:48.168Z,60.01
2022-07-30T00:58:17.371Z,59.55
2022-07-30T01:00:45.394Z,59.55
2022-07-30T01:03:13.376Z,59.79
2022-07-30T01:05:41.356Z,60.33
2022-07-30T01:08:09.562Z,60.21
2022-07-30T01:10:37.595Z,60.61
2022-07-30T01:13:06.100Z,61.11
2022-07-30T01:15:35.703Z,60.87
2022-07-30T01:18:07.181Z,61.30
2022-07-30T01:20:38.730Z,60.67
2022-07-30T01:23:14.122Z,61.15
2022-07-30T01:25:57.767Z,60.74
2022-07-30T01:28:30.017Z,60.54
2022-07-30T01:30:59.737Z,61.13
2022-07-30T01:33:29.913Z,60.98
2022-07-30T01:36:01.059Z,61.09
2022-07-30T01:38:34.999Z,61.60
2022-07-30T01:41:07.014Z,62.20
2022-07-30T01:43:36.667Z,62.19
2022-07-30T01:46:05.870Z,61.73
2022-07-30T01:48:38.398Z,61.39
2022-07-30T01:51:07.700Z,61.56
2022-07-30T01:53:39.676Z,61.52
2022-07-30T01:56:11.422Z,62.40
2022-07-30T01:58:42.639Z,62.87
2022-07-30T02:01:30.805Z,62.86
2022-07-30T02:04:02.930Z,63.15
2022-07-30T02:06:35.729Z,62.16
2022-07-30T02:09:11.225Z,61.60
2022-07-30T02:12:02.186Z,61.59
2022-07-30T02:14:35.260Z,61.85
2022-07-30T02:17:05.489Z,61.61
2022-07-30T02:19:37.696Z,61.49
2022-07-30T02:22:14.021Z,61.96
2022-07-30T02:24:45.042Z,62.19
2022-07-30T02:27:17.840Z,62.97
2022-07-30T02:29:48.516Z,63.93
2022-07-30T02:32:21.738Z,65.00
2022-07-30T02:34:54.780Z,65.74
2022-07-30T02:37:41.120Z,65.87
2022-07-30T02:40:16.563Z,65.02
2022-07-30T02:42:48.330Z,65.80
2022-07-30T02:45:21.155Z,65.68
2022-07-30T02:47:53.705Z,67.07
2022-07-30T02:50:23.288Z,66.57
2022-07-30T02:52:52.883Z,66.68
2022-07-30T02:55:22.416Z,66.37
2022-07-30T02:57:54.343Z,66.63
2022-07-30T03:00:24.018Z,67.07
2022-07-30T03:02:56.730Z,67.65
2022-07-30T03:05:26.687Z,67.98
2022-07-30T03:07:57.432Z,68.11
2022-07-30T03:10:27.461Z,68.81
2022-07-30T03:12:57.659Z,68.05
2022-07-30T03:15:26.801Z,67.99
2022-07-30T03:17:55.713Z,68.15
2022-07-30T03:20:28.460Z,68.68
2022-07-30T03:23:00.450Z,69.06
2022-07-30T03:25:31.911Z,69.80
2022-07-30T03:28:03.907Z,70.30
2022-07-30T03:30:34.507Z,71.12
2022-07-30T03:33:04.683Z,72.18
2022-07-30T03:35:34.229Z,72.25
2022-07-30T03:38:03.275Z,72.76
2022-07-30T03:40:32.218Z,72.41
2022-07-30T03:43:02.293Z,71.77
2022-07-30T03:45:31.446Z,71.13
2022-07-30T03:48:08.153Z,70.86
2022-07-30T03:50:37.794Z,71.36
2022-07-30T03:53:06.975Z,71.81
2022-07-30T03:55:43.178Z,72.64
2022-07-30T03:58:35.867Z,73.19
2022-07-30T04:01:06.429Z,74.11
2022-07-30T04:03:35.192Z,74.00
2022-07-30T04:06:06.192Z,73.86
2022-07-30T04:08:34.303Z,73.43
2022-07-30T04:11:04.013Z,74.84
2022-07-30T04:13:48.245Z,74.99
2022-07-30T04:16:39.447Z,75.00
2022-07-30T04:19:17.779Z,74.99
2022-07-30T04:21:48.425Z,75.84
2022-07-30T04:24:19.202Z,76.04
2022-07-30T04:26:48.746Z,76.50
2022-07-30T04:29:24.126Z,76.31
2022-07-30T04:31:55.081Z,76.53
2022-07-30T04:34:57.329Z,76.77
2022-07-30T04:37:45.539Z,76.76
2022-07-30T04:40:14.167Z,76.87
2022-07-30T04:42:42.175Z,77.20
2022-07-30T04:45:14.248Z,77.18
2022-07-30T04:48:08.817Z,77.31
2022-07-30T04:50:42.108Z,76.68
2022-07-30T04:53:13.006Z,76.59
2022-07-30T04:55:48.631Z,76.67
2022-07-30T04:58:19.741Z,76.24
2022-07-30T05:00:51.845Z,76.55
2022-07-30T05:03:26.142Z,76.37
2022-07-30T05:05:57.729Z,76.17
2022-07-30T05:08:29.851Z,76.45
2022-07-30T05:11:01.372Z,76.67
2022-07-30T05:13:34.609Z,76.40
2022-07-30T05:16:09.067Z,77.20
2022-07-30T05:18:37.191Z,76.65
2022-07-30T05:21:06.261Z,76.66
2022-07-30T05:23:40.849Z,76.48
2022-07-30T05:26:27.652Z,76.17
2022-07-30T05:28:57.338Z,76.84
2022-07-30T05:31:41.567Z,76.88
2022-07-30T05:34:10.881Z,77.20
2022-07-30T05:36:45.476Z,76.68
2022-07-30T05:39:16.602Z,76.75
2022-07-30T05:41:53.454Z,76.96
2022-07-30T05:44:26.616Z,76.89
2022-07-30T05:46:55.949Z,77.26
2022-07-30T05:49:24.266Z,77.24
2022-07-30T05:51:54.599Z,77.19
2022-07-30T05:54:24.732Z,76.72
2022-07-30T05:57:07.850Z,76.66
2022-07-30T05:59:39.092Z,76.45
2022-07-30T06:02:11.401Z,75.36
2022-07-30T06:04:55.552Z,73.52
2022-07-30T06:07:24.679Z,72.17
2022-07-30T06:09:59.974Z,72.49
2022-07-30T06:12:29.542Z,72.87
2022-07-30T06:14:58.110Z,73.79
2022-07-30T06:17:44.933Z,73.83
2022-07-30T06:20:35.820Z,74.34
2022-07-30T06:23:14.127Z,73.08
2022-07-30T06:25:56.390Z,72.95
2022-07-30T06:28:40.041Z,73.16
2022-07-30T06:31:26.477Z,73.22
2022-07-30T06:33:56.415Z,72.43
2022-07-30T06:36:26.309Z,73.27
2022-07-30T06:39:01.948Z,72.88
2022-07-30T06:42:08.545Z,72.14
2022-07-30T06:45:02.185Z,72.48
2022-07-30T06:47:47.497Z,71.68
2022-07-30T06:50:19.071Z,70.00
2022-07-30T06:52:47.361Z,70.34
2022-07-30T06:55:15.602Z,70.92
2022-07-30T06:57:48.718Z,69.55
2022-07-30T07:00:36.961Z,70.92
2022-07-30T07:03:11.974Z,69.10
2022-07-30T07:05:41.854Z,69.64
2022-07-30T07:08:09.742Z,69.01
2022-07-30T07:10:42.722Z,68.71
2022-07-30T07:13:24.999Z,67.98
2022-07-30T07:15:53.443Z,67.53
2022-07-30T07:18:23.708Z,68.19
2022-07-30T07:20:57.679Z,69.17
2022-07-30T07:23:25.785Z,70.33
2022-07-30T07:26:12.697Z,69.19
2022-07-30T07:28:41.519Z,69.45
2022-07-30T07:31:10.264Z,69.29
2022-07-30T07:33:41.882Z,68.98
2022-07-30T07:36:12.647Z,69.88
2022-07-30T07:38:40.952Z,69.48
2022-07-30T07:41:09.214Z,69.70
2022-07-30T07:43:37.842Z,70.47
2022-07-30T07:46:06.108Z,70.80
2022-07-30T07:48:35.630Z,70.87
2022-07-30T07:51:47.821Z,71.38
2022-07-30T07:54:21.525Z,72.31
2022-07-30T07:56:52.990Z,73.05
2022-07-30T07:59:36.147Z,73.91
2022-07-30T08:02:12.970Z,73.83
2022-07-30T08:04:57.300Z,74.14
2022-07-30T08:07:46.459Z,74.19
2022-07-30T08:10:50.056Z,74.89
2022-07-30T08:13:48.597Z,73.71
2022-07-30T08:16:39.568Z,73.59
2022-07-30T08:19:43.068Z,73.41
2022-07-30T08:22:19.500Z,73.45
2022-07-30T08:24:48.980Z,74.09
2022-07-30T08:27:18.028Z,72.64
2022-07-30T08:29:46.214Z,72.13
2022-07-30T08:32:15.196Z,72.75
2022-07-30T08:34:44.440Z,71.96
2022-07-30T08:37:14.027Z,71.26
2022-07-30T08:39:42.737Z,72.45
2022-07-30T08:42:15.200Z,72.83
2022-07-30T08:44:45.580Z,73.55
2022-07-30T08:47:18.595Z,73.15
2022-07-30T08:50:16.700Z,74.13
2022-07-30T08:53:04.528Z,73.41
2022-07-30T08:55:33.315Z,73.86
2022-07-30T08:58:03.708Z,73.92
2022-07-30T09:00:31.911Z,73.65
2022-07-30T09:03:00.371Z,73.27
2022-07-30T09:05:28.825Z,72.97
2022-07-30T09:07:57.054Z,72.99
2022-07-30T09:10:26.673Z,72.50
2022-07-30T09:12:55.225Z,72.83
2022-07-30T09:15:25.760Z,73.57
2022-07-30T09:17:57.092Z,72.78
2022-07-30T09:20:29.534Z,74.08
2022-07-30T09:22:59.738Z,74.11
2022-07-30T09:25:41.565Z,74.21
2022-07-30T09:28:33.017Z,74.59
2022-07-30T09:31:15.531Z,74.77
2022-07-30T09:34:26.235Z,74.85
2022-07-30T09:37:18.988Z,75.07
2022-07-30T09:40:12.807Z,74.52
2022-07-30T09:43:29.554Z,74.39
2022-07-30T09:46:10.292Z,73.98
2022-07-30T09:48:40.692Z,73.74
2022-07-30T09:51:15.603Z,73.62
2022-07-30T09:53:59.214Z,72.96
2022-07-30T09:56:30.831Z,72.67
2022-07-30T09:59:01.081Z,72.68
2022-07-30T10:01:49.940Z,72.54
2022-07-30T10:04:37.394Z,73.61
2022-07-30T10:07:25.382Z,74.27
2022-07-30T10:10:01.452Z,73.93
2022-07-30T10:12:33.717Z,74.32
2022-07-30T10:15:06.192Z,73.54
2022-07-30T10:17:38.553Z,73.81
2022-07-30T10:20:24.227Z,73.95
2022-07-30T10:23:15.766Z,72.33
2022-07-30T10:26:04.697Z,71.36
2022-07-30T10:28:55.005Z,71.87
2022-07-30T10:31:47.396Z,70.86
2022-07-30T10:34:14.812Z,71.63
2022-07-30T10:36:47.311Z,70.73
2022-07-30T10:39:22.756Z,70.48
2022-07-30T10:42:07.466Z,68.50
2022-07-30T10:45:17.948Z,68.96
2022-07-30T10:47:48.876Z,69.09
2022-07-30T10:50:22.502Z,67.28
2022-07-30T10:52:54.118Z,67.87
2022-07-30T10:55:32.919Z,68.11
2022-07-30T10:58:07.819Z,68.73
2022-07-30T11:00:38.567Z,67.63
2022-07-30T11:03:19.200Z,65.68
2022-07-30T11:05:49.617Z,65.49
2022-07-30T11:08:37.014Z,66.56
2022-07-30T11:11:19.571Z,67.45
2022-07-30T11:13:55.100Z,67.22
2022-07-30T11:16:25.011Z,68.53
2022-07-30T11:22:26.157Z,70.81
2022-07-30T11:24:56.613Z,72.65
2022-07-30T11:27:36.691Z,71.46
2022-07-30T11:30:08.384Z,70.50
2022-07-30T11:32:37.416Z,70.89
2022-07-30T11:35:18.094Z,71.36
2022-07-30T11:38:04.293Z,72.03
2022-07-30T11:40:35.154Z,72.43
2022-07-30T11:43:34.753Z,71.78
2022-07-30T11:46:10.534Z,73.00
2022-07-30T11:48:40.652Z,72.00
2022-07-30T11:51:09.855Z,70.97
2022-07-30T11:53:38.576Z,69.78
2022-07-30T11:56:09.514Z,69.68
2022-07-30T11:58:42.511Z,70.95
2022-07-30T12:01:14.373Z,71.57
2022-07-30T12:03:44.313Z,71.89
2022-07-30T12:06:18.301Z,72.12
2022-07-30T12:08:48.437Z,71.81
2022-07-30T12:11:18.079Z,72.56
2022-07-30T12:13:57.146Z,72.97
2022-07-30T12:16:25.134Z,73.43
2022-07-30T12:18:54.135Z,73.70
2022-07-30T12:21:22.551Z,73.85
2022-07-30T12:23:58.065Z,74.68
2022-07-30T12:26:30.029Z,74.25
2022-07-30T12:28:59.622Z,72.88
2022-07-30T12:31:29.009Z,73.50
2022-07-30T12:33:59.312Z,73.38
2022-07-30T12:36:30.964Z,72.48
2022-07-30T12:38:59.953Z,71.89
2022-07-30T12:41:54.144Z,72.43
2022-07-30T12:44:39.108Z,73.20
2022-07-30T12:47:18.882Z,72.91
2022-07-30T12:49:49.879Z,72.65
2022-07-30T12:52:28.699Z,73.10
2022-07-30T12:54:59.131Z,73.90
2022-07-30T12:57:28.846Z,74.42
2022-07-30T13:00:05.942Z,74.29
2022-07-30T13:02:34.766Z,74.00
2022-07-30T13:05:10.884Z,74.25
2022-07-30T13:07:54.308Z,74.32
2022-07-30T13:10:25.028Z,75.02
2022-07-30T13:12:58.485Z,74.83
2022-07-30T13:15:27.174Z,74.89
2022-07-30T13:17:55.255Z,74.57
2022-07-30T13:20:23.770Z,74.36
2022-07-30T13:22:51.776Z,74.14
2022-07-30T13:25:19.827Z,74.16
2022-07-30T13:27:48.564Z,73.75
2022-07-30T13:30:18.217Z,74.36
2022-07-30T13:32:46.881Z,74.61
2022-07-30T13:35:16.037Z,74.86
2022-07-30T13:37:44.107Z,75.04
2022-07-30T13:40:12.545Z,74.59
2022-07-30T13:42:40.651Z,73.22
2022-07-30T13:45:10.074Z,72.43
2022-07-30T13:47:39.516Z,73.83
2022-07-30T13:50:08.186Z,74.78
2022-07-30T13:52:36.158Z,74.35
2022-07-30T13:55:04.312Z,74.13
2022-07-30T13:57:32.287Z,74.20
2022-07-30T14:00:00.345Z,74.51
2022-07-30T14:02:32.809Z,75.41
2022-07-30T14:05:06.962Z,74.78
2022-07-30T14:07:35.276Z,74.97
2022-07-30T14:10:03.881Z,75.13
2022-07-30T14:12:31.997Z,74.52
2022-07-30T14:15:00.047Z,74.38
2022-07-30T14:17:28.404Z,74.72
2022-07-30T14:19:56.576Z,74.46
2022-07-30T14:22:26.053Z,73.43
2022-07-30T14:24:54.098Z,74.32
2022-07-30T14:27:22.083Z,74.79
2022-07-30T14:29:50.493Z,73.69
2022-07-30T14:32:19.296Z,74.15
2022-07-30T14:34:49.504Z,74.02
2022-07-30T14:37:17.821Z,74.36
2022-07-30T14:39:47.140Z,74.40
2022-07-30T14:42:15.107Z,73.70
2022-07-30T14:44:43.223Z,73.21
2022-07-30T14:47:11.277Z,74.22
2022-07-30T14:49:39.513Z,73.86
2022-07-30T14:52:08.064Z,73.95
2022-07-30T14:54:36.125Z,73.98
2022-07-30T14:57:08.609Z,73.20
2022-07-30T14:59:37.030Z,74.21
2022-07-30T15:02:05.881Z,73.55
2022-07-30T15:04:38.725Z,73.17
2022-07-30T15:07:06.854Z,72.60
2022-07-30T15:09:35.040Z,72.67
2022-07-30T15:12:08.989Z,72.25
2022-07-30T15:14:40.296Z,72.24
2022-07-30T15:17:09.404Z,71.81
2022-07-30T15:19:37.460Z,70.77
2022-07-30T15:22:18.268Z,71.63
2022-07-30T15:24:46.273Z,71.51
2022-07-30T15:27:14.313Z,70.96
2022-07-30T15:29:44.533Z,70.80
2022-07-30T15:32:13.653Z,70.07
2022-07-30T15:34:42.372Z,68.95
2022-07-30T15:37:10.399Z,69.50
2022-07-30T15:39:38.400Z,70.38
2022-07-30T15:42:06.992Z,70.17
2022-07-30T15:44:35.554Z,70.70
2022-07-30T15:47:05.165Z,69.54
2022-07-30T15:49:33.284Z,70.28
2022-07-30T15:52:02.030Z,71.74
2022-07-30T15:54:30.459Z,70.10
2022-07-30T15:57:01.052Z,69.75
2022-07-30T15:59:30.419Z,69.05
2022-07-30T16:01:58.456Z,68.31
2022-07-30T16:04:31.275Z,69.79
2022-07-30T16:07:01.065Z,69.91
2022-07-30T16:09:29.517Z,68.83
2022-07-30T16:11:58.139Z,70.11
2022-07-30T16:14:27.386Z,68.74
2022-07-30T16:16:55.463Z,69.50
2022-07-30T16:19:23.506Z,69.31
2022-07-30T16:21:53.354Z,69.14
2022-07-30T16:24:21.795Z,70.54
2022-07-30T16:26:50.729Z,70.23
2022-07-30T16:29:18.994Z,70.39
2022-07-30T16:31:48.406Z,70.18
2022-07-30T16:34:17.795Z,70.60
2022-07-30T16:36:56.515Z,71.20
2022-07-30T16:39:24.450Z,70.65
2022-07-30T16:41:52.849Z,70.87
2022-07-30T16:44:20.861Z,71.12
2022-07-30T16:46:49.241Z,71.26
2022-07-30T16:49:17.322Z,71.15
2022-07-30T16:51:45.622Z,72.39
2022-07-30T16:54:14.984Z,72.16
2022-07-30T16:56:43.495Z,73.19
2022-07-30T16:59:13.780Z,72.84
2022-07-30T17:01:42.140Z,72.11
2022-07-30T17:04:10.080Z,72.91
2022-07-30T17:06:39.983Z,72.93
2022-07-30T17:09:08.669Z,71.81
2022-07-30T17:11:47.480Z,70.59
2022-07-30T17:14:22.196Z,68.18
2022-07-30T17:16:50.672Z,67.92
2022-07-30T17:19:18.705Z,68.73
2022-07-30T17:21:46.728Z,69.32
2022-07-30T17:24:14.732Z,68.47
2022-07-30T17:26:44.377Z,69.40
2022-07-30T17:29:14.715Z,69.53
2022-07-30T17:31:44.614Z,67.83
2022-07-30T17:34:15.914Z,67.20
2022-07-30T17:36:51.697Z,68.78
2022-07-30T17:40:27.311Z,69.83
2022-07-30T17:42:12.240Z,72.29
2022-07-30T17:44:41.149Z,71.93
2022-07-30T17:47:14.570Z,72.30
2022-07-30T17:49:44.687Z,73.03
2022-07-30T17:52:12.742Z,72.75
2022-07-30T17:54:40.761Z,73.25
2022-07-30T17:57:09.205Z,73.23
2022-07-30T17:59:38.931Z,72.67
2022-07-30T18:02:07.291Z,73.00
2022-07-30T18:04:36.030Z,73.64
2022-07-30T18:07:05.031Z,73.38
2022-07-30T18:09:36.187Z,74.02
2022-07-30T18:12:08.349Z,74.62
2022-07-30T18:14:36.556Z,74.87
2022-07-30T18:17:08.210Z,74.56
2022-07-30T18:19:39.443Z,74.45
2022-07-30T18:22:09.338Z,74.53
2022-07-30T18:24:40.215Z,74.83
2022-07-30T18:27:08.842Z,75.38
2022-07-30T18:29:36.836Z,75.63
2022-07-30T18:32:07.579Z,75.26
2022-07-30T18:34:36.395Z,75.63
2022-07-30T18:37:04.679Z,75.32
2022-07-30T18:39:32.714Z,75.61
2022-07-30T18:42:00.991Z,76.46
2022-07-30T18:44:29.351Z,75.67
2022-07-30T18:46:57.284Z,75.47
2022-07-30T18:49:36.505Z,75.57
2022-07-30T18:52:06.130Z,75.82
2022-07-30T18:54:34.597Z,75.81
2022-07-30T18:57:02.967Z,76.58
2022-07-30T18:59:31.054Z,77.27
2022-07-30T19:02:00.306Z,76.89
2022-07-30T19:04:31.060Z,77.13
2022-07-30T19:06:59.075Z,77.08
2022-07-30T19:09:27.341Z,76.47
2022-07-30T19:11:55.777Z,76.40
2022-07-30T19:14:23.703Z,76.82
2022-07-30T19:16:52.451Z,77.56
2022-07-30T19:19:20.762Z,77.71
2022-07-30T19:21:49.969Z,77.04
2022-07-30T19:24:17.829Z,76.45
2022-07-30T19:26:45.940Z,76.57
2022-07-30T19:29:13.851Z,76.12
2022-07-30T19:31:42.525Z,76.25
2022-07-30T19:34:11.765Z,75.87
2022-07-30T19:36:39.868Z,75.51
2022-07-30T19:39:12.154Z,75.17
2022-07-30T19:41:44.049Z,74.84
2022-07-30T19:44:13.652Z,74.80
2022-07-30T19:46:47.179Z,75.15
2022-07-30T19:49:17.380Z,75.14
2022-07-30T19:52:16.898Z,75.40
2022-07-30T19:54:36.950Z,75.42
2022-07-30T19:57:05.300Z,75.70
2022-07-30T19:59:59.344Z,75.18
2022-07-30T20:02:22.461Z,74.81
2022-07-30T20:04:50.665Z,74.93
2022-07-30T20:07:19.227Z,74.96
2022-07-30T20:09:49.187Z,74.65
2022-07-30T20:12:17.227Z,74.73
2022-07-30T20:14:45.125Z,74.42
2022-07-30T20:17:13.426Z,74.39
2022-07-30T20:19:47.597Z,74.92
2022-07-30T20:22:17.083Z,74.86
2022-07-30T20:24:45.329Z,75.45
2022-07-30T20:27:36.449Z,75.81
2022-07-30T20:30:02.726Z,75.75
2022-07-30T20:32:31.144Z,75.17
2022-07-30T20:35:00.416Z,74.75
2022-07-30T20:37:28.968Z,74.33
2022-07-30T20:39:57.283Z,74.42
2022-07-30T20:42:26.730Z,74.58
2022-07-30T20:44:56.909Z,74.43
2022-07-30T20:47:34.680Z,74.65
2022-07-30T20:50:09.632Z,74.75
2022-07-30T20:52:39.219Z,74.47
2022-07-30T20:55:08.393Z,74.58
2022-07-30T20:57:56.313Z,74.69
2022-07-30T21:00:27.105Z,74.94
2022-07-30T21:02:54.981Z,75.15
2022-07-30T21:05:23.356Z,75.07
2022-07-30T21:07:56.452Z,74.59
2022-07-30T21:10:26.090Z,74.02
2022-07-30T21:12:58.646Z,74.54
2022-07-30T21:15:32.921Z,74.88
2022-07-30T21:18:01.805Z,74.55
2022-07-30T21:20:30.140Z,74.11
2022-07-30T21:23:04.595Z,73.74
2022-07-30T21:25:33.480Z,74.18
2022-07-30T21:28:03.307Z,73.98
2022-07-30T21:30:33.016Z,74.18
2022-07-30T21:33:02.048Z,74.46
2022-07-30T21:35:31.934Z,74.66
2022-07-30T21:38:00.286Z,74.52
2022-07-30T21:40:29.442Z,74.82
2022-07-30T21:42:57.811Z,74.44
2022-07-30T21:45:38.144Z,74.47
2022-07-30T21:48:10.768Z,74.56
2022-07-30T21:50:39.952Z,74.25
2022-07-30T21:53:08.155Z,74.61
2022-07-30T21:55:52.802Z,74.69
2022-07-30T21:58:26.286Z,74.56
2022-07-30T22:01:17.217Z,74.11
2022-07-30T22:06:35.487Z,73.86
2022-07-30T22:09:08.549Z,73.81
2022-07-30T22:11:47.178Z,73.84
2022-07-30T22:14:15.764Z,73.24
2022-07-30T22:16:46.388Z,73.04
2022-07-30T22:19:15.228Z,73.03
2022-07-30T22:21:46.600Z,72.88
2022-07-30T22:24:31.424Z,73.30
2022-07-30T22:27:01.658Z,73.62
2022-07-30T22:29:38.270Z,73.65
2022-07-30T22:32:08.919Z,73.54
2022-07-30T22:34:37.876Z,73.57
2022-07-30T22:37:09.149Z,73.67
2022-07-30T22:39:50.772Z,73.70
2022-07-30T22:42:20.987Z,73.49
2022-07-30T22:44:54.678Z,74.07
2022-07-30T22:47:54.072Z,73.63
2022-07-30T22:50:14.802Z,74.20
2022-07-30T22:55:33.896Z,73.93
2022-07-30T22:58:01.795Z,74.13
2022-07-30T23:00:29.725Z,74.02
2022-07-30T23:02:58.988Z,74.17
2022-07-30T23:05:27.517Z,73.82
2022-07-30T23:07:55.483Z,73.63
2022-07-30T23:10:25.755Z,73.93
2022-07-30T23:12:30.688Z,73.93
2022-07-30T23:12:31.756Z,73.98
2022-07-30T23:12:56.412Z,73.82
2022-07-30T23:15:24.589Z,74.08
2022-07-30T23:17:53.140Z,73.67
2022-07-30T23:20:22.962Z,74.05
2022-07-30T23:22:51.322Z,73.68
2022-07-30T23:25:19.182Z,73.43
2022-07-30T23:27:47.488Z,73.26
2022-07-30T23:30:15.657Z,74.00
2022-07-30T23:32:43.895Z,74.47
2022-07-30T23:35:12.760Z,74.68
2022-07-30T23:37:48.732Z,75.45
2022-07-30T23:40:18.370Z,76.00
2022-07-30T23:42:46.312Z,76.08
2022-07-30T23:45:14.229Z,76.25
2022-07-30T23:48:00.994Z,76.52
2022-07-30T23:50:30.508Z,76.74
2022-07-30T23:53:00.123Z,76.53
2022-07-30T23:55:28.117Z,76.78
2022-07-30T23:57:56.041Z,76.72
